Time;durP1;ratioP1;P1;durP2;ratioP2;P2;SDS_P1;SDS_P2;PMS_P1;PMS_P2;Temp;Humidity;BMP_temperature;BMP_pressure;BME280_temperature;BME280_humidity;BME280_pressure;Samples;Min_cycle;Max_cycle;Signal;HPM_P1;HPM_P2
2023/01/23 00:01:12;;;;;;;0.00;0.00;;;;;;;-2.79;100.00;102316.97;4881261;29;20064;-76
2023/01/23 00:03:38;;;;;;;0.00;0.00;;;;;;;-2.84;100.00;102306.66;4913645;29;20724;-75
2023/01/23 00:06:07;;;;;;;0.00;0.00;;;;;;;-2.83;100.00;102313.72;4899360;29;20087;-77
2023/01/23 00:08:34;;;;;;;0.10;0.10;;;;;;;-2.85;100.00;102318.34;4905704;29;20033;-76
2023/01/23 00:11:04;;;;;;;0.00;0.00;;;;;;;-2.86;100.00;102313.94;4902687;29;20493;-75
2023/01/23 00:13:30;;;;;;;0.10;0.10;;;;;;;-2.92;100.00;102315.34;4909888;29;20037;-75
2023/01/23 00:15:55;;;;;;;0.00;0.00;;;;;;;-2.87;100.00;102323.00;4894992;29;20027;-76
2023/01/23 00:18:21;;;;;;;0.00;0.00;;;;;;;-2.92;100.00;102325.19;4863640;29;20364;-75
2023/01/23 00:20:46;;;;;;;0.00;0.00;;;;;;;-2.87;100.00;102328.34;4897469;29;20034;-75
2023/01/23 00:23:12;;;;;;;0.00;0.00;;;;;;;-2.83;100.00;102319.06;4899951;29;20032;-75
2023/01/23 00:25:38;;;;;;;0.00;0.00;;;;;;;-2.78;100.00;102314.16;4907916;29;20036;-74
2023/01/23 00:28:04;;;;;;;0.00;0.00;;;;;;;-2.68;100.00;102317.75;4890860;29;20089;-75
2023/01/23 00:30:30;;;;;;;0.10;0.10;;;;;;;-2.69;100.00;102313.34;4892902;29;20455;-75
2023/01/23 00:32:55;;;;;;;0.00;0.00;;;;;;;-2.71;100.00;102299.25;4895802;29;20029;-76
2023/01/23 00:35:21;;;;;;;0.00;0.00;;;;;;;-2.74;100.00;102307.56;4851883;29;20115;-75
2023/01/23 00:37:47;;;;;;;0.00;0.00;;;;;;;-2.78;100.00;102311.47;4898314;29;20058;-75
2023/01/23 00:40:12;;;;;;;0.00;0.00;;;;;;;-2.79;100.00;102319.66;4895507;29;20064;-74
2023/01/23 00:42:38;;;;;;;0.00;0.00;;;;;;;-2.83;100.00;102314.56;4909002;29;20035;-76
2023/01/23 00:45:04;;;;;;;0.00;0.00;;;;;;;-2.88;100.00;102295.34;4896543;29;20044;-75
2023/01/23 00:47:30;;;;;;;0.00;0.00;;;;;;;-2.91;100.00;102292.09;4903354;29;20558;-74
2023/01/23 00:49:57;;;;;;;0.00;0.00;;;;;;;-2.79;100.00;102298.22;4891815;29;20032;-74
2023/01/23 00:52:23;;;;;;;0.00;0.00;;;;;;;-2.66;100.00;102305.09;4877732;29;20033;-74
2023/01/23 00:54:49;;;;;;;0.00;0.00;;;;;;;-2.67;100.00;102303.38;4881727;29;20051;-74
2023/01/23 00:57:14;;;;;;;0.00;0.00;;;;;;;-2.75;100.00;102295.13;4891474;29;20395;-74
2023/01/23 00:59:39;;;;;;;0.10;0.10;;;;;;;-2.82;100.00;102284.13;4885304;29;20048;-75
2023/01/23 01:02:05;;;;;;;0.00;0.00;;;;;;;-2.76;100.00;102304.19;4896405;29;20028;-74
2023/01/23 01:04:31;;;;;;;0.00;0.00;;;;;;;-2.79;100.00;102304.41;4897111;29;20028;-74
2023/01/23 01:06:56;;;;;;;0.00;0.00;;;;;;;-2.81;100.00;102306.38;4881750;29;20123;-76
2023/01/23 01:09:22;;;;;;;0.00;0.00;;;;;;;-2.88;100.00;102305.22;4899313;29;20033;-75
2023/01/23 01:11:48;;;;;;;0.00;0.00;;;;;;;-2.88;100.00;102306.06;4896262;29;20068;-75
2023/01/23 01:14:14;;;;;;;0.00;0.00;;;;;;;-2.83;100.00;102313.72;4914752;29;20032;-74
2023/01/23 01:16:44;;;;;;;0.00;0.00;;;;;;;-2.88;100.00;102310.56;4881505;29;20092;-74
2023/01/23 01:19:10;;;;;;;0.05;0.05;;;;;;;-2.91;100.00;102314.34;4899945;29;20092;-74
2023/01/23 01:21:41;;;;;;;0.00;0.00;;;;;;;-2.86;100.00;102325.53;4908128;29;20028;-74
2023/01/23 01:24:07;;;;;;;0.00;0.00;;;;;;;-2.85;100.00;102326.38;4902552;29;20085;-73
2023/01/23 01:26:33;;;;;;;0.00;0.00;;;;;;;-2.81;100.00;102333.16;4905309;29;20475;-74
2023/01/23 01:28:58;;;;;;;0.00;0.00;;;;;;;-2.84;100.00;102328.91;4902661;29;20062;-74
2023/01/23 01:31:23;;;;;;;0.00;0.00;;;;;;;-2.88;100.00;102318.59;4909535;29;20021;-74
2023/01/23 01:33:49;;;;;;;0.00;0.00;;;;;;;-2.84;100.00;102328.06;4907353;29;20159;-73
2023/01/23 01:36:17;;;;;;;0.00;0.00;;;;;;;-2.85;100.00;102326.38;4897347;29;20395;-74
2023/01/23 01:38:43;;;;;;;0.00;0.00;;;;;;;-2.89;100.00;102319.56;4908704;29;20090;-74
2023/01/23 01:41:11;;;;;;;0.00;0.00;;;;;;;-2.89;100.00;102316.91;4873698;29;20412;-75
2023/01/23 01:43:37;;;;;;;0.00;0.00;;;;;;;-2.94;100.00;102305.75;4897375;29;20435;-73
2023/01/23 01:46:17;;;;;;;0.00;0.00;;;;;;;-2.91;100.00;102324.22;4880865;29;20041;-74
2023/01/23 01:48:49;;;;;;;0.00;0.00;;;;;;;-2.93;100.00;102334.22;4904369;29;20051;-75
2023/01/23 01:51:33;;;;;;;0.00;0.00;;;;;;;-2.94;100.00;102337.88;4907429;29;21265;-74
2023/01/23 01:54:08;;;;;;;0.00;0.00;;;;;;;-2.96;100.00;102334.47;4911105;29;20028;-76
2023/01/23 01:56:43;;;;;;;0.10;0.10;;;;;;;-2.97;100.00;102338.97;4891303;29;20024;-74
2023/01/23 01:59:13;;;;;;;0.00;0.00;;;;;;;-3.06;100.00;102323.69;4896718;29;20024;-74
2023/01/23 02:01:40;;;;;;;0.10;0.10;;;;;;;-3.08;100.00;102326.50;4889580;29;20768;-76
2023/01/23 02:04:06;;;;;;;0.00;0.00;;;;;;;-3.10;100.00;102327.59;4912707;29;20032;-75
2023/01/23 02:06:31;;;;;;;0.10;0.10;;;;;;;-3.13;100.00;102326.03;4893093;29;20028;-74
2023/01/23 02:09:17;;;;;;;0.00;0.00;;;;;;;-3.07;100.00;102343.41;4897359;29;20032;-75
2023/01/23 02:11:44;;;;;;;0.00;0.00;;;;;;;-3.11;100.00;102341.97;4899165;29;20959;-75
2023/01/23 02:14:10;;;;;;;0.00;0.00;;;;;;;-3.10;100.00;102357.06;4900764;29;20024;-75
2023/01/23 02:16:39;;;;;;;0.00;0.00;;;;;;;-3.07;100.00;102360.31;4886168;29;20039;-75
2023/01/23 02:19:36;;;;;;;0.10;0.10;;;;;;;-3.09;100.00;102356.94;4894469;29;20078;-73
2023/01/23 02:22:18;;;;;;;0.10;0.10;;;;;;;-3.14;100.00;102348.41;4892356;29;20054;-74
2023/01/23 02:25:04;;;;;;;0.00;0.00;;;;;;;-3.09;100.00;102356.94;4892459;29;20040;-75
2023/01/23 02:27:31;;;;;;;0.05;0.05;;;;;;;-3.17;100.00;102336.16;4912030;29;20024;-75
2023/01/23 02:30:02;;;;;;;0.00;0.00;;;;;;;-3.10;100.00;102355.22;4882104;29;20043;-76
2023/01/23 02:32:28;;;;;;;0.00;0.00;;;;;;;-3.16;100.00;102345.03;4889689;29;20065;-75
2023/01/23 02:34:58;;;;;;;0.10;0.10;;;;;;;-3.21;100.00;102341.91;4881006;29;20544;-75
2023/01/23 02:37:28;;;;;;;0.00;0.00;;;;;;;-3.08;100.00;102369.34;4892201;29;20036;-75
2023/01/23 02:39:54;;;;;;;0.00;0.00;;;;;;;-3.18;100.00;102344.31;4909684;29;20055;-74
2023/01/23 02:42:22;;;;;;;0.00;0.00;;;;;;;-3.27;100.00;102337.91;4884079;29;20060;-74
2023/01/23 02:44:54;;;;;;;0.00;0.00;;;;;;;-3.24;100.00;102343.00;4890804;29;20032;-75
2023/01/23 02:47:20;;;;;;;0.00;0.00;;;;;;;-3.16;100.00;102353.06;4871011;29;20055;-75
2023/01/23 02:49:48;;;;;;;0.10;0.10;;;;;;;-3.13;100.00;102347.44;4895603;29;20032;-75
2023/01/23 02:52:13;;;;;;;0.05;0.05;;;;;;;-3.07;100.00;102360.31;4885598;29;20033;-74
2023/01/23 02:54:39;;;;;;;0.10;0.10;;;;;;;-3.12;100.00;102351.84;4905977;29;20043;-74
2023/01/23 02:57:05;;;;;;;0.00;0.00;;;;;;;-3.04;100.00;102360.06;4905467;29;20081;-77
2023/01/23 03:02:17;;;;;;;0.10;0.10;;;;;;;-3.11;100.00;102358.88;4906381;29;20072;-76
2023/01/23 03:04:42;;;;;;;0.00;0.00;;;;;;;-3.16;100.00;102355.72;4876375;29;20545;-76
2023/01/23 03:07:08;;;;;;;0.00;0.00;;;;;;;-3.16;100.00;102361.09;4881892;29;20467;-78
2023/01/23 03:09:33;;;;;;;0.10;0.10;;;;;;;-3.23;100.00;102354.53;4907564;29;20123;-78
2023/01/23 03:11:59;;;;;;;0.00;0.00;;;;;;;-3.20;100.00;102365.00;4906241;29;20111;-78
2023/01/23 03:14:25;;;;;;;0.00;0.00;;;;;;;-3.23;100.00;102360.75;4881183;29;20088;-79
2023/01/23 03:16:52;;;;;;;0.00;0.00;;;;;;;-3.28;100.00;102362.13;4875734;29;20021;-76
2023/01/23 03:19:23;;;;;;;0.00;0.00;;;;;;;-3.34;100.00;102353.63;4884503;29;20033;-77
2023/01/23 03:21:50;;;;;;;0.00;0.00;;;;;;;-3.35;100.00;102362.59;4907935;29;20059;-76
2023/01/23 03:24:17;;;;;;;0.10;0.10;;;;;;;-3.33;100.00;102362.47;4884497;29;20087;-76
2023/01/23 03:26:45;;;;;;;0.00;0.00;;;;;;;-3.41;100.00;102346.22;4888889;29;20039;-78
2023/01/23 03:32:02;;;;;;;0.10;0.10;;;;;;;-3.37;100.00;102359.22;4907575;29;20039;-76
2023/01/23 03:34:30;;;;;;;0.00;0.00;;;;;;;-3.38;100.00;102356.69;4898475;29;20043;-76
2023/01/23 03:36:57;;;;;;;0.00;0.00;;;;;;;-3.37;100.00;102356.53;4893535;29;20036;-78
2023/01/23 03:42:06;;;;;;;0.00;0.00;;;;;;;-3.37;100.00;102361.06;4904055;29;20386;-78
2023/01/23 03:44:32;;;;;;;0.10;0.10;;;;;;;-3.39;100.00;102363.88;4867659;29;20029;-76
2023/01/23 03:46:57;;;;;;;0.00;0.00;;;;;;;-3.37;100.00;102361.91;4902561;29;20024;-76
2023/01/23 03:49:22;;;;;;;0.00;0.00;;;;;;;-3.36;100.00;102365.41;4884283;29;20363;-77
2023/01/23 03:51:48;;;;;;;0.00;0.00;;;;;;;-3.39;100.00;102352.28;4898071;29;20490;-77
2023/01/23 03:54:13;;;;;;;0.10;0.10;;;;;;;-3.39;100.00;102361.19;4888865;29;20043;-77
2023/01/23 03:56:41;;;;;;;0.00;0.00;;;;;;;-3.40;100.00;102351.44;4911969;29;20040;-77
2023/01/23 03:59:06;;;;;;;0.00;0.00;;;;;;;-3.40;100.00;102361.28;4905027;29;20047;-77
2023/01/23 04:01:32;;;;;;;0.10;0.10;;;;;;;-3.47;100.00;102347.59;4883959;29;20041;-77
2023/01/23 04:04:00;;;;;;;0.00;0.00;;;;;;;-3.46;100.00;102354.63;4878453;29;20036;-78
2023/01/23 04:06:25;;;;;;;0.00;0.00;;;;;;;-3.50;100.00;102339.81;4876998;29;20076;-79
2023/01/23 04:08:51;;;;;;;0.10;0.10;;;;;;;-3.58;100.00;102328.88;4881175;29;20120;-78
2023/01/23 04:11:25;;;;;;;0.10;0.10;;;;;;;-3.51;100.00;102343.44;4877299;29;20140;-77
2023/01/23 04:13:53;;;;;;;0.00;0.00;;;;;;;-3.52;100.00;102339.06;4876524;29;20024;-78
2023/01/23 04:16:21;;;;;;;0.10;0.10;;;;;;;-3.54;100.00;102333.00;4844659;29;20132;-78
2023/01/23 04:18:47;;;;;;;0.00;0.00;;;;;;;-3.53;100.00;102329.38;4882293;29;20032;-75
2023/01/23 04:21:13;;;;;;;0.00;0.00;;;;;;;-3.58;100.00;102329.72;4873420;29;20032;-75
2023/01/23 04:23:41;;;;;;;0.10;0.10;;;;;;;-3.55;100.00;102331.31;4888149;29;20032;-74
2023/01/23 04:26:06;;;;;;;0.00;0.00;;;;;;;-3.60;100.00;102330.84;4862892;29;20044;-75
2023/01/23 04:28:39;;;;;;;0.10;0.10;;;;;;;-3.61;100.00;102334.50;4878300;29;20032;-78
2023/01/23 04:31:08;;;;;;;0.00;0.00;;;;;;;-3.70;100.00;102323.56;4860942;29;20475;-78
2023/01/23 04:33:34;;;;;;;0.10;0.10;;;;;;;-3.63;100.00;102336.44;4890474;29;20036;-78
2023/01/23 04:36:02;;;;;;;0.00;0.00;;;;;;;-3.65;100.00;102343.72;4896133;29;20124;-78
2023/01/23 04:38:33;;;;;;;0.00;0.00;;;;;;;-3.76;100.00;102325.91;4883036;29;20059;-79
2023/01/23 04:40:59;;;;;;;0.00;0.00;;;;;;;-3.79;100.00;102335.00;4877730;29;20028;-79
2023/01/23 04:43:24;;;;;;;0.10;0.10;;;;;;;-3.77;100.00;102341.06;4862362;29;20466;-78
2023/01/23 04:45:53;;;;;;;0.05;0.05;;;;;;;-3.69;100.00;102354.69;4873826;29;20107;-76
2023/01/23 04:48:24;;;;;;;0.00;0.00;;;;;;;-3.74;100.00;102351.56;4873534;29;20490;-78
2023/01/23 04:50:52;;;;;;;0.00;0.00;;;;;;;-3.71;100.00;102350.44;4876054;29;20040;-77
2023/01/23 04:53:18;;;;;;;0.10;0.10;;;;;;;-3.75;100.00;102333.81;4864937;29;20028;-78
2023/01/23 04:55:47;;;;;;;0.00;0.00;;;;;;;-3.82;100.00;102324.56;4862047;29;20024;-78
2023/01/23 04:58:13;;;;;;;0.00;0.00;;;;;;;-3.73;100.00;102358.56;4879111;29;20036;-77
2023/01/23 05:00:39;;;;;;;0.10;0.10;;;;;;;-3.77;100.00;102356.28;4854186;29;20064;-77
2023/01/23 05:03:12;;;;;;;0.00;0.00;;;;;;;-3.84;100.00;102349.72;4860635;29;20036;-77
2023/01/23 05:05:37;;;;;;;0.10;0.10;;;;;;;-3.87;100.00;102350.81;4877012;29;20028;-77
2023/01/23 05:08:03;;;;;;;0.10;0.10;;;;;;;-3.86;100.00;102353.38;4870934;29;20080;-78
2023/01/23 05:10:37;;;;;;;0.00;0.00;;;;;;;-3.96;100.00;102332.84;4888086;29;20119;-77
2023/01/23 05:13:02;;;;;;;0.00;0.00;;;;;;;-3.85;100.00;102351.56;4893733;29;20024;-77
2023/01/23 05:15:28;;;;;;;0.00;0.00;;;;;;;-3.90;100.00;102340.38;4883102;29;20040;-78
2023/01/23 05:17:53;;;;;;;0.00;0.00;;;;;;;-3.92;100.00;102331.66;4877250;29;20475;-77
2023/01/23 05:20:27;;;;;;;0.00;0.00;;;;;;;-3.87;100.00;102343.66;4859287;29;20043;-77
2023/01/23 05:22:54;;;;;;;0.10;0.10;;;;;;;-3.85;100.00;102338.19;4901878;29;20044;-77
2023/01/23 05:25:22;;;;;;;0.10;0.10;;;;;;;-3.94;100.00;102338.91;4882111;29;20080;-77
2023/01/23 05:27:48;;;;;;;0.00;0.00;;;;;;;-3.92;100.00;102339.66;4878840;29;20053;-78
2023/01/23 05:30:14;;;;;;;0.10;0.10;;;;;;;-3.91;100.00;102344.03;4885381;29;20021;-78
2023/01/23 05:32:40;;;;;;;0.10;0.10;;;;;;;-4.04;100.00;102342.34;4865079;29;20506;-78
2023/01/23 05:35:06;;;;;;;0.10;0.10;;;;;;;-4.07;100.00;102345.25;4849710;29;20047;-79
2023/01/23 05:37:31;;;;;;;0.10;0.10;;;;;;;-4.06;100.00;102357.66;4879675;29;20025;-80
2023/01/23 05:39:59;;;;;;;0.10;0.10;;;;;;;-4.12;100.00;102352.78;4860860;29;20033;-78
2023/01/23 05:42:30;;;;;;;0.00;0.00;;;;;;;-4.17;100.00;102349.63;4877593;29;20047;-78
2023/01/23 05:44:55;;;;;;;0.10;0.10;;;;;;;-4.18;100.00;102350.59;4877582;29;20024;-77
2023/01/23 05:47:26;;;;;;;0.10;0.10;;;;;;;-4.23;100.00;102336.78;4878081;29;20032;-76
2023/01/23 05:49:52;;;;;;;0.10;0.10;;;;;;;-4.16;100.00;102355.81;4869490;29;20052;-77
2023/01/23 05:52:21;;;;;;;0.10;0.10;;;;;;;-4.13;100.00;102367.13;4886016;29;20033;-77
2023/01/23 05:54:46;;;;;;;0.10;0.10;;;;;;;-4.17;100.00;102359.50;4878606;29;20124;-77
2023/01/23 05:57:14;;;;;;;0.10;0.10;;;;;;;-4.27;100.00;102333.47;4891937;29;20111;-78
2023/01/23 05:59:40;;;;;;;0.10;0.10;;;;;;;-4.25;100.00;102338.69;4876419;29;20411;-78
2023/01/23 06:02:05;;;;;;;0.00;0.00;;;;;;;-4.27;100.00;102343.31;4895509;29;20031;-78
2023/01/23 06:04:31;;;;;;;0.10;0.10;;;;;;;-4.26;100.00;102361.91;4873695;29;20063;-78
2023/01/23 06:06:56;;;;;;;0.05;0.05;;;;;;;-4.35;100.00;102353.75;4883300;29;20110;-79
2023/01/23 06:09:22;;;;;;;0.10;0.10;;;;;;;-4.24;100.00;102380.47;4867969;29;20036;-78
2023/01/23 06:11:47;;;;;;;0.00;0.00;;;;;;;-4.35;100.00;102367.13;4883515;29;20609;-80
2023/01/23 06:14:13;;;;;;;0.10;0.10;;;;;;;-4.27;100.00;102375.38;4861053;29;20083;-79
2023/01/23 06:16:38;;;;;;;0.10;0.10;;;;;;;-4.29;100.00;102366.63;4878846;29;20391;-78
2023/01/23 06:19:04;;;;;;;0.10;0.10;;;;;;;-4.23;100.00;102376.84;4871987;29;20039;-78
2023/01/23 06:21:31;;;;;;;0.10;0.10;;;;;;;-4.31;100.00;102364.06;4877341;29;20203;-77
2023/01/23 06:24:03;;;;;;;0.10;0.10;;;;;;;-4.25;100.00;102365.41;4895495;29;20811;-78
2023/01/23 06:26:29;;;;;;;0.10;0.10;;;;;;;-4.30;100.00;102362.28;4903200;29;20024;-78
2023/01/23 06:29:03;;;;;;;0.10;0.10;;;;;;;-4.28;100.00;102371.00;4878612;29;20031;-76
2023/01/23 06:31:31;;;;;;;0.10;0.10;;;;;;;-4.25;100.00;102378.78;4893601;29;20032;-77
2023/01/23 06:33:59;;;;;;;0.10;0.10;;;;;;;-4.30;100.00;102370.28;4881290;29;20188;-77
2023/01/23 06:36:27;;;;;;;0.10;0.10;;;;;;;-4.31;100.00;102374.75;4893829;29;20406;-75
2023/01/23 06:38:53;;;;;;;0.10;0.10;;;;;;;-4.21;100.00;102385.59;4857738;29;20489;-78
2023/01/23 06:41:18;;;;;;;0.10;0.10;;;;;;;-4.23;100.00;102387.53;4909099;29;20043;-79
2023/01/23 06:43:44;;;;;;;0.10;0.10;;;;;;;-4.20;100.00;102376.59;4904593;29;20032;-78
2023/01/23 06:46:10;;;;;;;0.05;0.05;;;;;;;-4.17;100.00;102379.03;4897327;29;20475;-78
2023/01/23 06:48:36;;;;;;;0.00;0.00;;;;;;;-4.20;100.00;102373.94;4896045;29;20028;-78
2023/01/23 06:51:03;;;;;;;0.10;0.10;;;;;;;-4.17;100.00;102371.00;4889058;29;20021;-77
2023/01/23 06:53:40;;;;;;;0.10;0.10;;;;;;;-4.22;100.00;102357.16;4901577;29;20024;-77
2023/01/23 06:56:13;;;;;;;0.00;0.00;;;;;;;-4.16;100.00;102367.38;4894315;29;20680;-78
2023/01/23 06:58:42;;;;;;;0.10;0.10;;;;;;;-4.13;100.00;102383.16;4894239;29;20504;-79
2023/01/23 07:01:11;;;;;;;0.10;0.10;;;;;;;-4.14;100.00;102380.63;4909985;29;20051;-80
2023/01/23 07:03:39;;;;;;;0.10;0.10;;;;;;;-4.13;100.00;102387.63;4896981;29;20114;-79
2023/01/23 07:06:05;;;;;;;0.00;0.00;;;;;;;-4.25;100.00;102365.41;4884329;29;20059;-77
2023/01/23 07:08:37;;;;;;;0.10;0.10;;;;;;;-4.16;100.00;102378.06;4879548;29;20043;-81
2023/01/23 07:11:03;;;;;;;0.10;0.10;;;;;;;-4.16;100.00;102391.44;4897404;29;20027;-77
2023/01/23 07:13:29;;;;;;;0.10;0.10;;;;;;;-4.14;100.00;102384.13;4914741;29;20020;-78
2023/01/23 07:15:55;;;;;;;0.10;0.10;;;;;;;-4.17;100.00;102389.72;4905259;29;20076;-78
2023/01/23 07:18:21;;;;;;;0.00;0.00;;;;;;;-4.12;100.00;102395.53;4894283;29;20060;-79
2023/01/23 07:20:49;;;;;;;0.00;0.00;;;;;;;-4.09;100.00;102399.78;4898889;29;20118;-79
2023/01/23 07:23:15;;;;;;;0.00;0.00;;;;;;;-4.25;100.00;102370.75;4880159;29;20403;-77
2023/01/23 07:25:40;;;;;;;0.10;0.10;;;;;;;-4.10;100.00;102404.31;4892079;29;20032;-80
2023/01/23 07:28:06;;;;;;;0.10;0.10;;;;;;;-4.21;100.00;102385.59;4913232;29;20055;-78
2023/01/23 07:30:32;;;;;;;0.00;0.00;;;;;;;-4.24;100.00;102377.81;4866151;29;20028;-79
2023/01/23 07:32:58;;;;;;;0.10;0.10;;;;;;;-4.21;100.00;102386.41;4873621;29;20036;-77
2023/01/23 07:35:26;;;;;;;0.00;0.00;;;;;;;-4.11;100.00;102399.91;4895762;29;20078;-79
2023/01/23 07:37:57;;;;;;;0.10;0.10;;;;;;;-4.14;100.00;102392.16;4913239;29;20406;-80
2023/01/23 07:40:24;;;;;;;0.10;0.10;;;;;;;-4.16;100.00;102399.44;4892652;29;20031;-79
2023/01/23 07:42:52;;;;;;;0.00;0.00;;;;;;;-4.09;100.00;102406.00;4884273;29;20040;-80
2023/01/23 07:45:18;;;;;;;0.10;0.10;;;;;;;-4.08;100.00;102407.69;4898135;29;20427;-79
2023/01/23 07:47:43;;;;;;;0.10;0.10;;;;;;;-4.07;100.00;102409.41;4878869;29;20043;-80
2023/01/23 07:50:12;;;;;;;0.10;0.10;;;;;;;-4.03;100.00;102418.88;4898760;29;20422;-80
2023/01/23 07:52:38;;;;;;;0.00;0.00;;;;;;;-4.03;100.00;102402.84;4893641;29;20036;-80
2023/01/23 07:55:05;;;;;;;0.00;0.00;;;;;;;-3.99;100.00;102399.94;4889186;29;20115;-80
2023/01/23 07:57:37;;;;;;;0.00;0.00;;;;;;;-3.88;100.00;102418.66;4879076;29;20075;-79
2023/01/23 08:00:04;;;;;;;0.10;0.10;;;;;;;-3.84;100.00;102411.22;4894701;29;20861;-79
2023/01/23 08:02:33;;;;;;;0.10;0.10;;;;;;;-3.75;100.00;102424.72;4896237;29;20040;-80
2023/01/23 08:04:58;;;;;;;0.10;0.10;;;;;;;-3.66;100.00;102427.59;4894730;29;20063;-80
2023/01/23 08:07:27;;;;;;;0.10;0.10;;;;;;;-3.57;100.00;102427.72;4899817;29;20059;-81
2023/01/23 08:09:52;;;;;;;0.10;0.10;;;;;;;-3.51;100.00;102421.88;4898899;29;20029;-80
2023/01/23 08:12:27;;;;;;;0.10;0.10;;;;;;;-3.28;100.00;102437.88;4897050;29;20035;-80
2023/01/23 08:15:13;;;;;;;0.10;0.10;;;;;;;-3.17;100.00;102440.53;4884661;29;20124;-82
2023/01/23 08:17:42;;;;;;;0.00;0.00;;;;;;;-2.89;100.00;102453.44;4909866;29;20033;-82
2023/01/23 08:20:09;;;;;;;0.10;0.10;;;;;;;-2.74;100.00;102457.53;4882380;29;20055;-80
2023/01/23 08:22:44;;;;;;;0.03;0.03;;;;;;;-2.56;100.00;102446.25;4884107;29;20084;-80
2023/01/23 08:25:10;;;;;;;0.10;0.10;;;;;;;-2.18;100.00;102468.94;4882573;29;20024;-80
2023/01/23 08:27:38;;;;;;;0.00;0.00;;;;;;;-1.97;100.00;102456.34;4899053;29;20047;-80
2023/01/23 08:30:05;;;;;;;0.10;0.10;;;;;;;-1.68;100.00;102466.38;4879679;29;20431;-78
2023/01/23 08:32:40;;;;;;;0.10;0.10;;;;;;;-1.52;100.00;102456.97;4894475;29;20020;-77
2023/01/23 08:35:07;;;;;;;;;;;;;;;-1.17;100.00;102477.13;4877703;29;20087;-78
2023/01/23 08:37:33;;;;;;;0.10;0.10;;;;;;;-1.01;100.00;102469.38;4896085;29;19962;-80
2023/01/23 08:39:58;;;;;;;0.00;0.00;;;;;;;-0.99;100.00;102445.03;4907980;29;20059;-80
2023/01/23 08:42:24;;;;;;;0.10;0.10;;;;;;;-0.71;100.00;102481.00;4882740;29;20446;-81
2023/01/23 08:44:49;;;;;;;0.10;0.10;;;;;;;-0.69;100.00;102476.31;4877777;29;20039;-80
2023/01/23 08:47:15;;;;;;;0.10;0.10;;;;;;;-0.77;100.00;102455.53;4882405;29;20474;-81
2023/01/23 08:49:40;;;;;;;0.00;0.00;;;;;;;-0.66;100.00;102457.22;4869519;29;20167;-81
2023/01/23 08:52:17;;;;;;;0.10;0.10;;;;;;;-0.47;100.00;102477.03;4881508;29;20040;-79
2023/01/23 08:55:02;;;;;;;;;;;;;;;;;;;;;
2023/01/23 08:57:27;;;;;;;;;;;;;;;-0.22;100.00;102484.50;4908544;29;20040;-76
2023/01/23 08:59:53;;;;;;;0.10;0.10;;;;;;;-0.22;100.00;102465.69;4913952;29;20469;-77
2023/01/23 09:02:20;;;;;;;0.10;0.10;;;;;;;-0.03;100.00;102469.28;4895238;29;20047;-77
2023/01/23 09:04:46;;;;;;;0.00;0.00;;;;;;;0.13;100.00;102472.25;4909225;29;20028;-77
2023/01/23 09:07:12;;;;;;;0.00;0.00;;;;;;;0.31;100.00;102463.41;4894625;29;20036;-77
2023/01/23 09:09:37;;;;;;;0.10;0.10;;;;;;;0.55;100.00;102475.47;4898875;29;20399;-77
2023/01/23 09:12:03;;;;;;;0.10;0.10;;;;;;;0.78;100.00;102478.63;4901767;29;20020;-75
2023/01/23 09:14:28;;;;;;;0.00;0.00;;;;;;;0.96;100.00;102475.94;4892235;29;20407;-77
2023/01/23 09:16:54;;;;;;;0.00;0.00;;;;;;;1.41;100.00;102491.22;4895532;29;20028;-77
2023/01/23 09:19:19;;;;;;;0.10;0.10;;;;;;;1.56;100.00;102489.66;4897628;29;20031;-77
2023/01/23 09:21:47;;;;;;;0.00;0.00;;;;;;;1.68;100.00;102497.50;4908304;29;20032;-76
2023/01/23 09:24:12;;;;;;;0.10;0.10;;;;;;;1.86;100.00;102498.31;4895581;29;20091;-76
2023/01/23 09:26:42;;;;;;;0.10;0.10;;;;;;;2.22;100.00;102483.88;4862812;29;20476;-78
2023/01/23 09:29:07;;;;;;;0.00;0.00;;;;;;;3.04;100.00;102494.16;4893266;29;20116;-76
2023/01/23 09:31:35;;;;;;;0.00;0.00;;;;;;;5.02;100.00;102500.97;4890516;29;20114;-74
2023/01/23 09:34:08;;;;;;;0.00;0.00;;;;;;;6.51;100.00;102503.25;4874320;29;20034;-77
2023/01/23 09:36:34;;;;;;;0.00;0.00;;;;;;;7.14;100.00;102500.94;4870742;29;20129;-76
2023/01/23 09:39:07;;;;;;;0.00;0.00;;;;;;;7.76;100.00;102504.03;4869292;29;20040;-74
2023/01/23 09:41:32;;;;;;;0.00;0.00;;;;;;;8.49;100.00;102511.94;4883662;29;20025;-75
2023/01/23 09:44:09;;;;;;;0.10;0.10;;;;;;;9.12;100.00;102529.22;4876758;29;20372;-75
2023/01/23 09:46:41;;;;;;;0.03;0.03;;;;;;;9.47;100.00;102521.75;4893050;29;20083;-75
2023/01/23 09:49:20;;;;;;;0.00;0.00;;;;;;;9.87;100.00;102510.88;4889936;29;21829;-75
2023/01/23 09:51:57;;;;;;;0.00;0.00;;;;;;;10.08;100.00;102507.06;4894072;29;20036;-76
2023/01/23 09:54:43;;;;;;;0.00;0.00;;;;;;;10.56;100.00;102530.56;4887407;29;20029;-75
2023/01/23 09:57:31;;;;;;;0.00;0.00;;;;;;;10.76;100.00;102524.19;4912214;29;20111;-75
2023/01/23 10:00:12;;;;;;;0.08;0.08;;;;;;;10.33;100.00;102519.22;4900080;29;20096;-75
2023/01/23 10:02:42;;;;;;;0.00;0.00;;;;;;;9.53;100.00;102509.16;4905419;29;20036;-77
2023/01/23 10:05:15;;;;;;;0.10;0.10;;;;;;;9.50;100.00;102524.06;4904999;29;20062;-77
2023/01/23 10:08:06;;;;;;;0.10;0.10;;;;;;;9.70;100.00;102515.06;4908246;29;20082;-74
2023/01/23 10:10:37;;;;;;;0.00;0.00;;;;;;;10.63;100.00;102520.44;4907169;29;20119;-77
2023/01/23 10:13:02;;;;;;;0.00;0.00;;;;;;;11.98;100.00;102526.84;4909654;29;20479;-77
2023/01/23 10:16:09;;;;;;;0.00;0.00;;;;;;;12.90;100.00;102517.03;4891079;29;20114;-77
2023/01/23 10:18:53;;;;;;;0.00;0.00;;;;;;;13.26;100.00;102516.13;4892200;29;20064;-77
2023/01/23 10:21:33;;;;;;;0.03;0.03;;;;;;;13.24;100.00;102514.66;4907646;29;20028;-78
2023/01/23 10:24:12;;;;;;;0.00;0.00;;;;;;;13.14;100.00;102519.88;4906984;29;20054;-78
2023/01/23 10:26:44;;;;;;;0.00;0.00;;;;;;;13.54;100.00;102527.59;4919560;29;20071;-77
2023/01/23 10:29:21;;;;;;;0.00;0.00;;;;;;;13.85;100.00;102528.38;4891821;29;20088;-76
2023/01/23 10:31:56;;;;;;;0.00;0.00;;;;;;;13.44;100.00;102523.50;4914456;29;20057;-79
2023/01/23 10:34:33;;;;;;;0.00;0.00;;;;;;;13.24;100.00;102531.16;4902167;29;20040;-82
2023/01/23 10:37:10;;;;;;;0.00;0.00;;;;;;;13.47;100.00;102535.09;4909611;29;20110;-76
2023/01/23 10:39:49;;;;;;;0.00;0.00;;;;;;;13.92;100.00;102540.09;4892441;29;20039;-77
2023/01/23 10:42:23;;;;;;;0.00;0.00;;;;;;;13.92;100.00;102535.44;4881860;29;20040;-77
2023/01/23 10:44:54;;;;;;;0.00;0.00;;;;;;;14.39;100.00;102536.53;4895146;29;20036;-78
2023/01/23 10:47:34;;;;;;;0.00;0.00;;;;;;;15.31;100.00;102551.44;4890019;29;20034;-77
2023/01/23 10:50:09;;;;;;;0.00;0.00;;;;;;;15.86;100.00;102552.75;4886133;29;20064;-77
2023/01/23 10:52:45;;;;;;;0.00;0.00;;;;;;;16.42;100.00;102549.19;4872358;29;20025;-76
2023/01/23 10:55:23;;;;;;;0.00;0.00;;;;;;;16.96;100.00;102559.63;4894670;29;20031;-78
2023/01/23 10:57:53;;;;;;;0.00;0.00;;;;;;;17.48;100.00;102561.88;4908254;29;20088;-76
2023/01/23 11:00:44;;;;;;;0.00;0.00;;;;;;;17.43;100.00;102559.03;4905660;29;20520;-77
2023/01/23 11:03:19;;;;;;;0.00;0.00;;;;;;;17.20;100.00;102566.53;4910589;29;20052;-77
2023/01/23 11:05:52;;;;;;;0.00;0.00;;;;;;;17.94;100.00;102559.53;4903867;29;20040;-76
2023/01/23 11:08:41;;;;;;;0.00;0.00;;;;;;;19.60;100.00;102550.94;4912218;29;20032;-77
2023/01/23 11:11:22;;;;;;;0.00;0.00;;;;;;;21.56;97.29;102562.41;4913570;29;20017;-77
2023/01/23 11:14:03;;;;;;;0.00;0.00;;;;;;;23.60;91.27;102551.25;4891591;29;20028;-74
2023/01/23 11:16:29;;;;;;;0.00;0.00;;;;;;;25.56;83.80;102548.25;4899582;29;20028;-76
2023/01/23 11:19:03;;;;;;;0.00;0.00;;;;;;;27.17;79.81;102542.72;4883164;29;20031;-77
2023/01/23 11:21:32;;;;;;;0.00;0.00;;;;;;;28.32;77.59;102552.72;4911153;29;20036;-76
2023/01/23 11:24:22;;;;;;;0.00;0.00;;;;;;;29.16;76.74;102554.91;4897335;29;20328;-76
2023/01/23 11:26:58;;;;;;;0.00;0.00;;;;;;;30.07;75.56;102535.38;4913595;29;20048;-76
2023/01/23 11:29:27;;;;;;;0.00;0.00;;;;;;;30.70;75.04;102545.56;4897602;29;20557;-75
2023/01/23 11:32:09;;;;;;;0.00;0.00;;;;;;;31.55;74.75;102542.06;4915352;29;20032;-75
2023/01/23 11:34:42;;;;;;;0.00;0.00;;;;;;;32.29;72.05;102544.53;4892069;29;20048;-80
2023/01/23 11:37:22;;;;;;;0.00;0.00;;;;;;;32.64;74.33;102538.09;4895417;29;20088;-75